createdAt,value
2023-11-18T00:13:35.336Z,10.12
2023-11-18T00:33:35.308Z,10.09
2023-11-18T00:53:35.294Z,10.07
2023-11-18T01:13:35.353Z,10.06
2023-11-18T02:33:35.487Z,9.99
2023-11-18T02:53:35.338Z,9.96
2023-11-18T03:13:35.354Z,9.95
2023-11-18T03:33:35.338Z,9.95
2023-11-18T03:53:42.348Z,9.92
2023-11-18T04:13:35.377Z,9.9
2023-11-18T04:33:35.336Z,9.87
2023-11-18T04:53:35.435Z,9.85
2023-11-18T05:13:35.499Z,9.84
2023-11-18T05:33:35.417Z,9.83
2023-11-18T05:53:35.359Z,9.81
2023-11-18T06:13:35.373Z,9.78
2023-11-18T06:33:35.385Z,9.76
2023-11-18T06:53:35.358Z,9.75
2023-11-18T07:13:35.347Z,9.74
2023-11-18T07:33:35.365Z,9.73
2023-11-18T07:53:35.352Z,9.71
2023-11-18T08:33:35.416Z,9.67
2023-11-18T09:13:35.336Z,9.64
2023-11-18T09:33:35.586Z,9.63
2023-11-18T09:53:35.322Z,9.63
2023-11-18T10:13:35.317Z,9.61
2023-11-18T10:33:35.340Z,9.6
2023-11-18T10:53:35.025Z,9.58
2023-11-18T11:13:35.291Z,9.57
2023-11-18T11:33:35.373Z,9.56
2023-11-18T11:53:35.284Z,9.55
2023-11-18T12:13:35.250Z,9.55
2023-11-18T12:33:35.282Z,9.54
2023-11-18T12:53:35.226Z,9.54
2023-11-18T13:13:35.214Z,9.54
2023-11-18T13:33:35.216Z,9.54
2023-11-18T13:53:35.219Z,9.54
2023-11-18T14:13:35.155Z,9.53
2023-11-18T14:33:35.166Z,9.54
2023-11-18T14:53:35.185Z,9.54
2023-11-18T15:33:35.120Z,9.54
2023-11-18T15:53:35.149Z,9.54
2023-11-18T16:13:35.090Z,9.54
2023-11-18T16:33:35.129Z,9.54
2023-11-18T16:53:35.066Z,9.54
2023-11-18T17:13:35.050Z,9.54
2023-11-18T17:33:35.070Z,9.55
2023-11-18T17:53:35.048Z,9.54
2023-11-18T18:13:35.006Z,9.55
2023-11-18T18:53:35.002Z,9.54
2023-11-18T19:13:34.970Z,9.54
2023-11-18T19:33:34.968Z,9.54
2023-11-18T19:53:35.065Z,9.54
2023-11-18T20:13:34.929Z,9.54
2023-11-18T20:53:34.972Z,9.54
2023-11-18T21:13:34.893Z,9.54
2023-11-18T21:33:34.862Z,9.55
2023-11-18T21:53:34.871Z,9.55
2023-11-18T22:13:34.825Z,9.55
2023-11-18T22:33:34.870Z,9.56
2023-11-18T22:53:34.900Z,9.56
2023-11-18T23:13:34.787Z,9.57
2023-11-18T23:33:34.764Z,9.58
2023-11-18T23:53:34.775Z,9.59
